Time;durP1;ratioP1;P1;durP2;ratioP2;P2;SDS_P1;SDS_P2;PMS_P1;PMS_P2;Temp;Humidity;BMP_temperature;BMP_pressure;BME280_temperature;BME280_humidity;BME280_pressure;Samples;Min_cycle;Max_cycle;Signal;HPM_P1;HPM_P2
2023/11/01 00:04:05;;;;;;;0.00;0.00;;;;;;;8.92;65.28;100282.66;15715570;28;20072;-47
2023/11/01 00:11:39;;;;;;;25.60;0.98;;;;;;;8.69;65.96;100291.97;15714158;28;20494;-46
2023/11/01 00:19:15;;;;;;;0.00;0.00;;;;;;;8.67;65.63;100291.38;15718448;28;20052;-50
2023/11/01 00:26:48;;;;;;;0.00;0.00;;;;;;;8.45;64.99;100295.31;15710135;28;20513;-49
2023/11/01 00:34:24;;;;;;;0.63;0.52;;;;;;;8.27;66.20;100303.91;15716360;28;20044;-52
2023/11/01 00:41:57;;;;;;;0.00;0.00;;;;;;;8.37;64.83;100306.22;15715914;28;20044;-47
2023/11/01 00:49:32;;;;;;;0.00;0.00;;;;;;;8.35;64.45;100316.28;15707954;28;20041;-49
2023/11/01 00:57:05;;;;;;;0.00;0.00;;;;;;;8.59;64.38;100304.13;15707299;28;20056;-49
2023/11/01 01:04:45;;;;;;;0.20;0.20;;;;;;;8.82;65.27;100309.88;15717557;28;20045;-49
2023/11/01 01:12:18;;;;;;;0.00;0.00;;;;;;;8.48;63.69;100310.91;15735794;28;20041;-50
2023/11/01 01:19:53;;;;;;;0.00;0.00;;;;;;;8.76;64.74;100307.19;15693447;28;20045;-48
2023/11/01 01:27:27;;;;;;;0.00;0.00;;;;;;;9.11;65.85;100313.91;15714547;28;20044;-49
2023/11/01 01:35:02;;;;;;;0.00;0.00;;;;;;;9.05;67.29;100319.28;15730201;28;20082;-50
2023/11/01 01:42:36;;;;;;;0.03;0.03;;;;;;;9.03;67.10;100298.06;15729562;28;20045;-50
2023/11/01 01:50:11;;;;;;;;;;;;;;;8.81;67.50;100299.34;15720226;28;20098;-49
2023/11/01 01:57:45;;;;;;;0.00;0.00;;;;;;;8.74;66.91;100301.22;15711809;28;19924;-51
2023/11/01 02:05:21;;;;;;;0.00;0.00;;;;;;;8.80;68.56;100287.00;15732742;28;20052;-50
2023/11/01 02:12:54;;;;;;;0.93;0.47;;;;;;;9.01;67.91;100297.47;15728532;28;20485;-52
2023/11/01 02:20:35;;;;;;;0.00;0.00;;;;;;;9.01;66.38;100285.94;15717660;28;20409;-50
2023/11/01 02:28:12;;;;;;;0.00;0.00;;;;;;;7.92;72.38;100289.91;15705031;28;20070;-50
2023/11/01 02:35:45;;;;;;;0.00;0.00;;;;;;;8.96;69.57;100289.25;15728506;28;20644;-50
2023/11/01 02:43:19;;;;;;;;;;;;;;;9.00;69.02;100295.81;15722370;28;20047;-50
2023/11/01 02:50:53;;;;;;;0.00;0.00;;;;;;;8.42;69.88;100298.38;15715318;28;19971;-51
2023/11/01 02:58:30;;;;;;;0.00;0.00;;;;;;;8.24;70.14;100296.28;15725873;28;20063;-50
2023/11/01 03:06:03;;;;;;;0.00;0.00;;;;;;;8.80;68.40;100295.84;15717452;28;20045;-52
2023/11/01 03:13:38;;;;;;;0.45;0.45;;;;;;;8.53;68.31;100300.41;15724446;28;20045;-54
2023/11/01 03:21:11;;;;;;;0.00;0.00;;;;;;;8.56;69.50;100304.53;15719311;28;20044;-52
2023/11/01 03:28:46;;;;;;;0.00;0.00;;;;;;;8.61;69.03;100307.41;15712995;28;20582;-54
2023/11/01 03:36:19;;;;;;;0.00;0.00;;;;;;;8.47;70.96;100311.13;15700066;28;20139;-53
2023/11/01 03:43:54;;;;;;;0.00;0.00;;;;;;;8.71;70.21;100312.34;15711485;28;20074;-50
2023/11/01 03:51:28;;;;;;;0.17;0.17;;;;;;;8.62;69.62;100312.56;15716091;28;20072;-52
2023/11/01 03:59:03;;;;;;;0.00;0.00;;;;;;;8.31;70.56;100312.34;15705962;28;20629;-52
2023/11/01 04:06:38;;;;;;;0.00;0.00;;;;;;;8.37;69.77;100298.19;15722903;28;20149;-52
2023/11/01 04:14:14;;;;;;;0.00;0.00;;;;;;;8.50;69.00;100290.16;15711777;28;20086;-50
2023/11/01 04:21:47;;;;;;;0.00;0.00;;;;;;;8.71;68.54;100281.06;15724774;28;20064;-51
2023/11/01 04:29:26;;;;;;;0.00;0.00;;;;;;;8.62;69.06;100288.47;15710192;28;20412;-53
2023/11/01 04:37:01;;;;;;;0.00;0.00;;;;;;;8.34;69.91;100282.50;15715702;28;20045;-48
2023/11/01 04:44:39;;;;;;;0.00;0.00;;;;;;;8.47;70.31;100274.50;15713327;28;20049;-53
2023/11/01 04:52:12;;;;;;;0.00;0.00;;;;;;;8.34;70.04;100258.44;15712740;28;20047;-52
2023/11/01 04:59:47;;;;;;;;;;;;;;;8.37;70.37;100266.09;15710221;28;20055;-50
2023/11/01 05:07:20;;;;;;;0.00;0.00;;;;;;;8.27;69.03;100242.41;15712517;28;20399;-52
2023/11/01 05:14:57;;;;;;;0.00;0.00;;;;;;;8.10;70.20;100260.72;15709750;28;20049;-53
2023/11/01 05:22:30;;;;;;;0.00;0.00;;;;;;;8.23;69.24;100251.88;15725064;28;20037;-52
2023/11/01 05:30:06;;;;;;;0.28;0.28;;;;;;;8.15;68.91;100236.84;15700686;28;20052;-50
2023/11/01 05:37:40;;;;;;;0.00;0.00;;;;;;;8.40;69.18;100260.34;15711063;28;20132;-50
2023/11/01 05:45:16;;;;;;;0.00;0.00;;;;;;;8.43;68.87;100267.94;15714077;28;20045;-52
2023/11/01 05:52:50;;;;;;;0.00;0.00;;;;;;;8.62;67.58;100267.06;15717975;28;20049;-51
2023/11/01 06:00:26;;;;;;;0.00;0.00;;;;;;;8.41;69.77;100265.47;15718302;28;20040;-51
2023/11/01 06:07:59;;;;;;;0.00;0.00;;;;;;;8.43;69.72;100260.72;15727269;28;20044;-52
2023/11/01 06:15:35;;;;;;;0.00;0.00;;;;;;;8.13;71.27;100267.53;15724641;28;20056;-52
2023/11/01 06:23:08;;;;;;;0.05;0.05;;;;;;;8.24;71.49;100272.22;15718034;28;20049;-49
2023/11/01 06:30:43;;;;;;;0.32;0.15;;;;;;;8.64;70.39;100283.75;15736635;28;20041;-50
2023/11/01 06:38:16;;;;;;;0.00;0.00;;;;;;;8.22;71.89;100284.19;15714825;28;20044;-52
2023/11/01 06:45:51;;;;;;;0.00;0.00;;;;;;;8.43;71.40;100289.31;15703138;28;20049;-48
2023/11/01 06:53:24;;;;;;;0.00;0.00;;;;;;;8.51;71.28;100288.31;15715504;28;20103;-52
2023/11/01 07:00:59;;;;;;;0.00;0.00;;;;;;;8.37;71.69;100290.16;15707675;28;20132;-51
2023/11/01 07:08:32;;;;;;;0.00;0.00;;;;;;;8.51;70.82;100277.59;15714792;28;20128;-51
2023/11/01 07:16:08;;;;;;;0.00;0.00;;;;;;;8.92;69.85;100274.63;15714187;28;20053;-49
2023/11/01 07:23:41;;;;;;;0.00;0.00;;;;;;;8.94;69.80;100275.22;15725388;28;20398;-49
2023/11/01 07:31:19;;;;;;;0.00;0.00;;;;;;;9.34;68.91;100267.88;15718393;28;20051;-50
2023/11/01 07:38:53;;;;;;;0.00;0.00;;;;;;;9.46;68.87;100270.69;15719656;28;20045;-50
2023/11/01 07:46:28;;;;;;;0.00;0.00;;;;;;;9.77;68.42;100272.56;15713144;28;20543;-49
2023/11/01 07:54:01;;;;;;;0.00;0.00;;;;;;;10.77;65.55;100252.94;15737088;28;20068;-48
2023/11/01 08:01:37;;;;;;;0.00;0.00;;;;;;;11.08;64.89;100247.41;15709326;28;20128;-49
2023/11/01 08:09:11;;;;;;;0.00;0.00;;;;;;;10.99;65.72;100257.63;15700482;28;20124;-47
2023/11/01 08:16:49;;;;;;;0.00;0.00;;;;;;;11.26;65.95;100235.00;15706391;28;20080;-49
2023/11/01 08:24:23;;;;;;;0.00;0.00;;;;;;;11.81;65.42;100243.72;15699367;28;20044;-50
2023/11/01 08:31:58;;;;;;;0.00;0.00;;;;;;;12.44;64.15;100239.59;15719553;28;20102;-49
2023/11/01 08:39:32;;;;;;;0.00;0.00;;;;;;;12.87;61.96;100233.81;15703282;28;20039;-48
2023/11/01 08:47:08;;;;;;;0.00;0.00;;;;;;;13.45;61.94;100229.31;15720605;28;20087;-50
2023/11/01 08:54:43;;;;;;;0.10;0.10;;;;;;;13.98;59.68;100231.56;15711117;28;20057;-51
2023/11/01 09:02:19;;;;;;;0.00;0.00;;;;;;;14.66;58.35;100232.38;15715274;28;20048;-48
2023/11/01 09:09:55;;;;;;;0.32;0.20;;;;;;;15.59;57.09;100215.31;15709373;28;20049;-50
2023/11/01 09:17:29;;;;;;;0.00;0.00;;;;;;;15.42;57.32;100226.22;15727219;28;20279;-49
2023/11/01 09:25:04;;;;;;;0.00;0.00;;;;;;;16.44;54.85;100208.16;15719160;28;20041;-48
2023/11/01 09:32:39;;;;;;;0.00;0.00;;;;;;;15.91;56.96;100207.25;15727657;28;20083;-50
2023/11/01 09:40:16;;;;;;;0.00;0.00;;;;;;;17.05;54.62;100198.44;15737002;28;20036;-48
2023/11/01 09:47:52;;;;;;;0.00;0.00;;;;;;;16.59;55.57;100205.50;15707077;28;20094;-54
2023/11/01 09:55:26;;;;;;;0.00;0.00;;;;;;;16.85;55.53;100197.56;15714274;28;20093;-52
2023/11/01 10:03:01;;;;;;;0.10;0.10;;;;;;;16.57;56.48;100194.13;15702045;28;20720;-51
2023/11/01 10:10:36;;;;;;;0.00;0.00;;;;;;;15.52;59.52;100188.47;15707848;28;20048;-49
2023/11/01 10:18:12;;;;;;;0.00;0.00;;;;;;;15.41;60.78;100181.34;15718683;28;20036;-50
2023/11/01 10:25:45;;;;;;;0.13;0.05;;;;;;;15.42;60.99;100172.16;15706565;28;20083;-50
2023/11/01 10:33:22;;;;;;;0.00;0.00;;;;;;;15.69;60.47;100151.31;15718582;28;20142;-52
2023/11/01 10:40:58;;;;;;;0.00;0.00;;;;;;;16.05;58.59;100140.75;15710678;28;20136;-49
2023/11/01 10:48:37;;;;;;;0.00;0.00;;;;;;;16.89;56.59;100122.75;15711644;28;20044;-52
2023/11/01 10:56:11;;;;;;;0.10;0.10;;;;;;;17.24;54.98;100128.22;15724824;28;20055;-50
2023/11/01 11:03:52;;;;;;;0.00;0.00;;;;;;;17.69;54.38;100110.34;15720210;28;20351;-52
2023/11/01 11:11:26;;;;;;;0.22;0.22;;;;;;;17.99;53.68;100119.56;15713487;28;20460;-53
2023/11/01 11:19:02;;;;;;;0.00;0.00;;;;;;;18.30;51.50;100102.09;15720312;28;20428;-48
2023/11/01 11:26:39;;;;;;;0.22;0.10;;;;;;;17.40;55.27;100101.13;15719891;28;20211;-55
2023/11/01 11:34:16;;;;;;;0.00;0.00;;;;;;;17.43;54.63;100093.25;15731480;28;20067;-52
2023/11/01 11:41:51;;;;;;;0.00;0.00;;;;;;;16.65;56.67;100084.44;15722400;28;20044;-53
2023/11/01 11:49:30;;;;;;;0.00;0.00;;;;;;;18.59;51.97;100068.81;15727418;28;20040;-53
2023/11/01 11:57:10;;;;;;;0.00;0.00;;;;;;;18.09;53.03;100074.19;15711373;28;20040;-55
2023/11/01 12:04:45;;;;;;;0.00;0.00;;;;;;;16.36;57.42;100076.72;15709642;28;20522;-50
2023/11/01 12:12:20;;;;;;;0.00;0.00;;;;;;;16.46;57.76;100063.25;15720668;28;20505;-52
2023/11/01 12:19:54;;;;;;;0.17;0.10;;;;;;;16.12;58.87;100065.53;15713949;28;20041;-47
2023/11/01 12:27:32;;;;;;;0.00;0.00;;;;;;;15.79;60.29;100048.56;15717673;28;20119;-52
2023/11/01 12:35:09;;;;;;;0.00;0.00;;;;;;;16.21;59.58;100041.47;15710718;28;20060;-53
2023/11/01 12:42:45;;;;;;;0.00;0.00;;;;;;;15.71;61.29;100032.81;15718859;28;20041;-53
2023/11/01 12:50:23;;;;;;;0.00;0.00;;;;;;;15.37;62.55;100035.00;15708094;28;20048;-52
2023/11/01 12:57:59;;;;;;;0.00;0.00;;;;;;;14.97;64.69;100041.72;15719356;28;20048;-53
2023/11/01 13:05:33;;;;;;;0.00;0.00;;;;;;;15.27;63.84;100033.03;15713596;28;20049;-52
2023/11/01 13:13:07;;;;;;;0.10;0.10;;;;;;;15.51;63.96;100029.94;15722773;28;20521;-51
2023/11/01 13:20:43;;;;;;;0.40;0.30;;;;;;;15.36;64.60;100030.66;15705163;28;20135;-52
2023/11/01 13:28:16;;;;;;;0.00;0.00;;;;;;;15.05;64.51;100025.00;15719919;28;20090;-53
2023/11/01 13:35:52;;;;;;;0.00;0.00;;;;;;;15.68;63.16;100011.72;15708155;28;20268;-56
2023/11/01 13:43:25;;;;;;;0.00;0.00;;;;;;;15.32;63.47;99994.41;15713975;28;20040;-52
2023/11/01 13:51:00;;;;;;;;;;;;;;;15.20;64.04;100012.69;15718283;28;20037;-49
2023/11/01 13:58:35;;;;;;;0.00;0.00;;;;;;;15.51;63.28;100005.63;15713572;28;19921;-49
2023/11/01 14:06:10;;;;;;;0.00;0.00;;;;;;;15.62;63.56;99999.22;15713719;28;20079;-53
2023/11/01 14:13:44;;;;;;;0.00;0.00;;;;;;;15.03;65.35;99996.63;15718969;28;20036;-54
2023/11/01 14:21:21;;;;;;;0.10;0.10;;;;;;;14.85;66.67;99991.59;15708036;28;20052;-52
2023/11/01 14:28:54;;;;;;;0.00;0.00;;;;;;;14.79;66.75;99979.94;15718642;28;20045;-47
2023/11/01 14:36:29;;;;;;;0.00;0.00;;;;;;;14.76;66.92;99983.94;15714994;28;20496;-47
2023/11/01 14:44:03;;;;;;;0.00;0.00;;;;;;;14.89;66.45;99965.69;15704179;28;20049;-49
2023/11/01 14:51:41;;;;;;;0.10;0.05;;;;;;;14.89;66.43;99971.91;15721241;28;20056;-50
2023/11/01 14:59:14;;;;;;;0.00;0.00;;;;;;;14.56;67.59;99955.94;15708170;28;20044;-53
2023/11/01 15:06:49;;;;;;;0.00;0.00;;;;;;;14.54;67.63;99945.38;15722321;28;20110;-50
2023/11/01 15:14:23;;;;;;;0.00;0.00;;;;;;;14.68;67.00;99935.78;15714658;28;20071;-52
2023/11/01 15:21:58;;;;;;;0.00;0.00;;;;;;;14.60;67.51;99932.75;15706632;28;20041;-52
2023/11/01 15:29:31;;;;;;;0.10;0.10;;;;;;;14.49;68.14;99916.44;15708987;28;20094;-52
2023/11/01 15:37:05;;;;;;;;;;;;;;;14.50;67.72;99903.75;15716237;28;20127;-53
2023/11/01 15:44:39;;;;;;;0.00;0.00;;;;;;;14.34;68.46;99900.06;15695850;28;20464;-53
2023/11/01 15:52:13;;;;;;;0.00;0.00;;;;;;;13.98;69.50;99894.31;15702153;28;20073;-49
2023/11/01 15:59:48;;;;;;;0.00;0.00;;;;;;;14.19;68.70;99889.13;15732634;28;20044;-51
2023/11/01 16:07:23;;;;;;;0.00;0.00;;;;;;;14.01;69.42;99888.41;15720405;28;20566;-51
2023/11/01 16:14:56;;;;;;;0.00;0.00;;;;;;;14.03;68.86;99891.69;15717756;28;20045;-51
2023/11/01 16:22:31;;;;;;;0.10;0.10;;;;;;;13.92;69.52;99876.44;15709425;28;20059;-51
2023/11/01 16:30:06;;;;;;;0.00;0.00;;;;;;;13.88;69.47;99874.50;15729345;28;20045;-52
2023/11/01 16:37:41;;;;;;;0.00;0.00;;;;;;;13.87;69.48;99876.38;15706349;28;20053;-48
2023/11/01 16:45:14;;;;;;;0.10;0.10;;;;;;;13.86;69.66;99876.66;15721081;28;20110;-52
2023/11/01 16:52:49;;;;;;;0.22;0.10;;;;;;;13.73;69.84;99875.16;15697663;28;20589;-52
2023/11/01 17:00:23;;;;;;;0.00;0.00;;;;;;;13.92;69.03;99875.63;15711549;28;20452;-48
2023/11/01 17:07:58;;;;;;;0.00;0.00;;;;;;;13.17;71.60;99890.56;15715720;28;20049;-48
2023/11/01 17:15:31;;;;;;;0.10;0.10;;;;;;;13.18;72.25;99902.97;15694945;28;20061;-50
2023/11/01 17:23:06;;;;;;;0.00;0.00;;;;;;;13.35;70.94;99898.41;15726528;28;20037;-55
2023/11/01 17:30:39;;;;;;;0.15;0.15;;;;;;;13.30;71.20;99897.53;15706479;28;20041;-50
2023/11/01 17:38:20;;;;;;;0.30;0.28;;;;;;;13.48;70.74;99886.44;15721448;28;20047;-52
2023/11/01 17:45:53;;;;;;;0.13;0.13;;;;;;;13.14;71.62;99889.16;15725708;28;20054;-51
2023/11/01 17:53:27;;;;;;;0.00;0.00;;;;;;;13.01;71.96;99893.06;15729600;28;21388;-50
2023/11/01 18:01:01;;;;;;;0.08;0.08;;;;;;;13.03;71.87;99887.41;15720495;28;20474;-49
2023/11/01 18:08:36;;;;;;;0.25;0.15;;;;;;;13.06;71.63;99878.84;15739218;28;20048;-50
2023/11/01 18:16:10;;;;;;;0.63;0.40;;;;;;;13.23;71.06;99876.94;15732727;28;20040;-52
2023/11/01 18:23:51;;;;;;;0.45;0.45;;;;;;;13.22;71.23;99869.09;15733570;28;20044;-51
2023/11/01 18:31:26;;;;;;;1.38;1.27;;;;;;;13.15;71.67;99866.56;15720876;28;20489;-55
2023/11/01 18:39:00;;;;;;;0.30;0.30;;;;;;;13.01;72.03;99849.94;15723633;28;20467;-50
2023/11/01 18:46:36;;;;;;;0.00;0.00;;;;;;;13.30;71.17;99846.31;15731473;28;20134;-52
2023/11/01 18:54:10;;;;;;;3.22;1.80;;;;;;;13.24;70.93;99838.16;15714105;28;20110;-50
2023/11/01 19:01:44;;;;;;;0.35;0.32;;;;;;;13.28;70.51;99833.06;15726329;28;20044;-50
2023/11/01 19:09:20;;;;;;;0.00;0.00;;;;;;;12.72;72.21;99833.06;15717201;28;20068;-52
2023/11/01 19:16:53;;;;;;;0.00;0.00;;;;;;;12.67;72.19;99838.38;15718518;28;20111;-51
2023/11/01 19:24:27;;;;;;;0.00;0.00;;;;;;;13.00;71.62;99837.53;15721315;28;20063;-52
2023/11/01 19:32:03;;;;;;;0.00;0.00;;;;;;;12.92;71.70;99829.06;15714535;28;20121;-50
2023/11/01 19:39:37;;;;;;;0.03;0.03;;;;;;;12.68;72.21;99833.81;15717998;28;20041;-53
2023/11/01 19:47:11;;;;;;;0.30;0.28;;;;;;;12.43;72.74;99820.78;15709198;28;20044;-50
2023/11/01 19:54:48;;;;;;;0.00;0.00;;;;;;;13.02;70.69;99808.47;15714267;28;20040;-53
2023/11/01 20:02:22;;;;;;;0.00;0.00;;;;;;;13.15;70.37;99809.16;15710355;28;20509;-48
2023/11/01 20:09:59;;;;;;;0.10;0.10;;;;;;;13.20;69.84;99799.28;15725093;28;20037;-52
2023/11/01 20:17:32;;;;;;;0.05;0.00;;;;;;;12.84;70.67;99791.78;15711087;28;20085;-51
2023/11/01 20:25:08;;;;;;;;;;;;;;;12.77;70.78;99786.56;15707986;28;20049;-49
2023/11/01 20:32:42;;;;;;;0.00;0.00;;;;;;;12.51;71.94;99788.09;15720114;28;20412;-45
2023/11/01 20:40:17;;;;;;;0.38;0.35;;;;;;;12.36;71.93;99777.09;15716242;28;20033;-47
2023/11/01 20:47:51;;;;;;;0.00;0.00;;;;;;;12.40;72.33;99776.34;15729604;28;20048;-48
2023/11/01 20:55:25;;;;;;;;;;;;;;;12.45;71.65;99768.34;15724276;28;20490;-53
2023/11/01 21:02:58;;;;;;;0.40;0.40;;;;;;;12.30;72.14;99753.84;15712633;28;20089;-54
2023/11/01 21:10:34;;;;;;;0.00;0.00;;;;;;;12.25;71.89;99723.09;15702157;28;20058;-48
2023/11/01 21:18:08;;;;;;;0.47;0.20;;;;;;;12.11;72.48;99746.00;15710733;28;20078;-50
2023/11/01 21:25:44;;;;;;;2.92;1.10;;;;;;;11.79;73.60;99734.94;15731982;28;20132;-52
2023/11/01 21:33:20;;;;;;;0.00;0.00;;;;;;;11.79;73.59;99723.38;15730419;28;20040;-48
2023/11/01 21:40:55;;;;;;;0.00;0.00;;;;;;;12.05;72.58;99700.47;15728300;28;20084;-52
2023/11/01 21:48:30;;;;;;;0.00;0.00;;;;;;;11.51;74.16;99700.88;15710898;28;20054;-47
2023/11/01 21:56:07;;;;;;;0.00;0.00;;;;;;;11.93;72.63;99701.34;15726720;28;20050;-51
2023/11/01 22:03:43;;;;;;;0.45;0.43;;;;;;;12.14;71.77;99694.41;15708532;28;20114;-50
2023/11/01 22:11:19;;;;;;;0.00;0.00;;;;;;;11.99;72.50;99673.50;15722334;28;20494;-47
2023/11/01 22:18:52;;;;;;;0.57;0.43;;;;;;;11.86;72.31;99670.31;15730234;28;20040;-49
2023/11/01 22:26:27;;;;;;;0.10;0.10;;;;;;;12.16;71.68;99664.56;15727023;28;20114;-47
2023/11/01 22:34:04;;;;;;;0.00;0.00;;;;;;;12.15;71.67;99660.25;15720253;28;20048;-50
2023/11/01 22:41:38;;;;;;;0.00;0.00;;;;;;;11.98;71.88;99661.09;15714388;28;20456;-47
2023/11/01 22:49:12;;;;;;;0.20;0.17;;;;;;;11.62;72.68;99665.06;15720794;28;20052;-51
2023/11/01 22:56:46;;;;;;;0.00;0.00;;;;;;;11.85;71.56;99649.88;15718679;28;20049;-52
2023/11/01 23:04:20;;;;;;;0.63;0.22;;;;;;;11.96;70.83;99649.75;15727563;28;20032;-50
2023/11/01 23:11:54;;;;;;;0.38;0.32;;;;;;;11.75;71.44;99640.56;15717480;28;20075;-49
2023/11/01 23:19:28;;;;;;;0.00;0.00;;;;;;;11.73;70.92;99617.66;15716994;28;20033;-46
2023/11/01 23:27:03;;;;;;;0.70;0.43;;;;;;;11.81;70.76;99594.94;15709466;28;20512;-46
2023/11/01 23:34:49;;;;;;;0.00;0.00;;;;;;;12.41;68.54;99586.09;15714749;28;20103;-52
2023/11/01 23:42:33;;;;;;;0.93;0.20;;;;;;;11.94;70.21;99591.94;15703405;28;20045;-47
2023/11/01 23:50:18;;;;;;;0.00;0.00;;;;;;;11.80;70.42;99595.97;15722992;28;20112;-52
2023/11/01 23:57:54;;;;;;;0.00;0.00;;;;;;;11.98;69.79;99590.34;15713150;28;20083;-54
